createdAt,value
2023-01-17T00:02:25.173Z,9.20
2023-01-17T00:05:10.451Z,5.80
2023-01-17T00:07:55.865Z,8.13
2023-01-17T00:10:24.878Z,8.35
2023-01-17T00:12:53.990Z,8.82
2023-01-17T00:15:22.903Z,9.10
2023-01-17T00:17:50.196Z,7.65
2023-01-17T00:20:37.683Z,7.70
2023-01-17T00:23:30.604Z,7.95
2023-01-17T00:28:40.712Z,5.43
2023-01-17T00:31:09.050Z,5.18
2023-01-17T00:33:35.742Z,8.10
2023-01-17T00:36:03.627Z,6.45
2023-01-17T00:38:32.994Z,6.40
2023-01-17T00:41:05.210Z,5.45
2023-01-17T00:43:50.873Z,5.07
2023-01-17T00:46:36.806Z,8.52
2023-01-17T00:49:21.952Z,7.45
2023-01-17T00:52:07.340Z,5.32
2023-01-17T00:54:52.820Z,5.45
2023-01-17T00:57:37.865Z,7.80
2023-01-17T01:00:23.664Z,6.32
2023-01-17T01:03:09.319Z,4.38
2023-01-17T01:05:55.959Z,5.68
2023-01-17T01:08:46.827Z,5.35
2023-01-17T01:11:35.291Z,6.63
2023-01-17T01:14:21.268Z,5.00
2023-01-17T01:17:06.576Z,3.65
2023-01-17T01:19:52.606Z,4.25
2023-01-17T01:22:38.075Z,3.63
2023-01-17T01:25:24.032Z,3.50
2023-01-17T01:28:09.617Z,5.25
2023-01-17T01:30:55.055Z,5.32
2023-01-17T01:33:21.647Z,4.40
2023-01-17T01:35:53.875Z,6.13
2023-01-17T01:38:23.091Z,6.03
2023-01-17T01:40:53.086Z,4.68
2023-01-17T01:43:44.984Z,3.85
2023-01-17T01:46:16.661Z,3.55
2023-01-17T01:49:17.455Z,3.37
2023-01-17T01:51:53.151Z,3.63
2023-01-17T01:54:28.251Z,3.65
2023-01-17T01:56:57.757Z,5.32
2023-01-17T01:59:25.807Z,3.42
2023-01-17T02:01:55.868Z,7.35
2023-01-17T02:04:23.411Z,2.08
2023-01-17T02:06:56.012Z,2.80
2023-01-17T02:09:23.646Z,2.70
2023-01-17T02:11:50.451Z,5.35
2023-01-17T02:14:18.422Z,3.03
2023-01-17T02:17:02.958Z,3.95
2023-01-17T02:20:04.256Z,3.03
2023-01-17T02:23:14.830Z,2.20
2023-01-17T02:26:29.551Z,3.53
2023-01-17T02:29:28.414Z,2.38
2023-01-17T02:32:09.528Z,5.07
2023-01-17T02:34:51.290Z,3.13
2023-01-17T02:37:34.785Z,2.13
2023-01-17T02:40:08.747Z,5.50
2023-01-17T02:42:42.656Z,1.85
2023-01-17T02:45:14.721Z,3.03
2023-01-17T02:47:41.346Z,3.53
2023-01-17T02:50:12.347Z,2.45
2023-01-17T02:53:32.546Z,3.22
2023-01-17T02:56:48.349Z,3.85
2023-01-17T02:59:27.295Z,2.75
2023-01-17T03:02:17.013Z,1.55
2023-01-17T03:05:01.641Z,2.78
2023-01-17T03:07:29.873Z,1.58
2023-01-17T03:10:00.895Z,3.40
2023-01-17T03:12:29.713Z,1.55
2023-01-17T03:14:56.414Z,3.03
2023-01-17T03:17:28.305Z,1.67
2023-01-17T03:19:54.958Z,5.93
2023-01-17T03:22:21.615Z,1463.03
2023-01-17T03:24:48.256Z,1416.00
2023-01-17T03:27:14.970Z,1140.70
2023-01-17T03:29:41.601Z,487.98
2023-01-17T03:32:08.191Z,188.63
2023-01-17T03:34:34.814Z,71.05
2023-01-17T03:37:01.476Z,61.80
2023-01-17T03:39:28.183Z,58.75
2023-01-17T03:41:54.779Z,60.08
2023-01-17T03:44:21.395Z,50.22
2023-01-17T03:46:48.002Z,33.58
2023-01-17T03:49:15.070Z,24.65
2023-01-17T03:51:41.708Z,20.67
2023-01-17T03:54:08.584Z,14.48
2023-01-17T03:56:35.212Z,9.50
2023-01-17T03:59:02.017Z,5.20
2023-01-17T04:01:28.844Z,5.78
2023-01-17T04:03:55.509Z,3.15
2023-01-17T04:06:22.181Z,5.28
2023-01-17T04:08:48.868Z,2.45
2023-01-17T04:11:15.536Z,9.98
2023-01-17T04:13:42.170Z,4.20
2023-01-17T04:16:14.312Z,4.65
2023-01-17T04:18:41.191Z,4.05
2023-01-17T04:21:08.233Z,4.78
2023-01-17T04:23:35.317Z,4.97
2023-01-17T04:26:03.614Z,5.05
2023-01-17T04:28:31.759Z,10.15
2023-01-17T04:30:59.966Z,5.22
2023-01-17T04:33:26.826Z,10.98
2023-01-17T04:35:54.330Z,7.57
2023-01-17T04:38:23.808Z,3.67
2023-01-17T04:40:51.408Z,8.55
2023-01-17T04:43:18.088Z,5.00
2023-01-17T04:45:44.749Z,3.38
2023-01-17T04:48:12.708Z,5.50
2023-01-17T04:50:40.255Z,4.55
2023-01-17T04:53:06.927Z,1.73
2023-01-17T04:55:33.545Z,3.95
2023-01-17T04:58:00.180Z,4.30
2023-01-17T05:00:26.776Z,2.67
2023-01-17T05:02:53.507Z,2.90
2023-01-17T05:05:20.246Z,4.78
2023-01-17T05:07:54.461Z,3.58
2023-01-17T05:10:21.080Z,3.03
2023-01-17T05:12:58.948Z,4.30
2023-01-17T05:15:26.743Z,1.48
2023-01-17T05:17:54.149Z,4.72
2023-01-17T05:20:22.393Z,4.45
2023-01-17T05:22:56.399Z,3.55
2023-01-17T05:25:24.707Z,3.17
2023-01-17T05:27:51.529Z,8.80
2023-01-17T05:30:18.859Z,2.38
2023-01-17T05:32:49.273Z,4.05
2023-01-17T05:35:19.604Z,3.08
2023-01-17T05:37:49.118Z,3.13
2023-01-17T05:40:27.327Z,3.33
2023-01-17T05:42:56.015Z,4.13
2023-01-17T05:45:24.671Z,1.58
2023-01-17T05:47:53.172Z,3.95
2023-01-17T05:50:29.174Z,2.25
2023-01-17T05:53:01.941Z,2.30
2023-01-17T05:55:29.181Z,1.85
2023-01-17T05:57:56.155Z,6.53
2023-01-17T06:00:23.365Z,2.97
2023-01-17T06:02:50.295Z,5.60
2023-01-17T06:05:17.154Z,2.78
2023-01-17T06:07:45.505Z,4.95
2023-01-17T06:10:16.387Z,2.55
2023-01-17T06:12:44.317Z,2.10
2023-01-17T06:15:12.409Z,1.75
2023-01-17T06:17:39.385Z,2.05
2023-01-17T06:20:08.613Z,3.25
2023-01-17T06:22:35.647Z,1.60
2023-01-17T06:25:02.238Z,1.10
2023-01-17T06:27:28.949Z,3.55
2023-01-17T06:29:55.574Z,2.80
2023-01-17T06:32:22.206Z,5.30
2023-01-17T06:34:48.828Z,3.47
2023-01-17T06:37:15.502Z,5.43
2023-01-17T06:39:42.294Z,2.08
2023-01-17T06:42:08.937Z,5.28
2023-01-17T06:44:35.559Z,4.75
2023-01-17T06:47:02.194Z,1.67
2023-01-17T06:49:28.792Z,2.38
2023-01-17T06:51:55.433Z,2.75
2023-01-17T06:54:22.084Z,5.88
2023-01-17T06:56:48.687Z,3.95
2023-01-17T06:59:15.298Z,6.22
2023-01-17T07:01:41.964Z,7.78
2023-01-17T07:04:08.712Z,3.95
2023-01-17T07:06:36.575Z,9.32
2023-01-17T07:09:04.313Z,13.55
2023-01-17T07:11:31.881Z,5.05
2023-01-17T07:13:58.718Z,6.60
2023-01-17T07:16:25.534Z,8.70
2023-01-17T07:18:54.710Z,1.85
2023-01-17T07:21:21.435Z,4.72
2023-01-17T07:23:48.693Z,7.53
2023-01-17T07:26:17.300Z,8.45
2023-01-17T07:28:44.192Z,5.28
2023-01-17T07:31:11.035Z,4.55
2023-01-17T07:33:37.762Z,7.43
2023-01-17T07:36:08.582Z,9.82
2023-01-17T07:38:35.547Z,12.98
2023-01-17T07:41:02.685Z,15.45
2023-01-17T07:43:29.401Z,6.07
2023-01-17T07:45:56.158Z,7.82
2023-01-17T07:48:24.598Z,6.90
2023-01-17T07:50:57.310Z,4.82
2023-01-17T07:53:26.529Z,5.50
2023-01-17T07:55:53.838Z,4.20
2023-01-17T07:58:20.989Z,3.20
2023-01-17T08:00:48.045Z,2.50
2023-01-17T08:03:17.398Z,3.92
2023-01-17T08:05:52.968Z,2.72
2023-01-17T08:08:19.800Z,3.63
2023-01-17T08:10:46.458Z,3.20
2023-01-17T08:13:13.136Z,2.88
2023-01-17T08:15:39.775Z,2.92
2023-01-17T08:18:06.376Z,1.17
2023-01-17T08:20:33.021Z,1.67
2023-01-17T08:22:59.845Z,2.63
2023-01-17T08:25:26.848Z,3.85
2023-01-17T08:27:58.010Z,1.38
2023-01-17T08:30:25.889Z,3.83
2023-01-17T08:32:52.779Z,1.10
2023-01-17T08:35:20.220Z,1.55
2023-01-17T08:37:47.917Z,2.38
2023-01-17T08:40:17.576Z,3.50
2023-01-17T08:42:44.296Z,2.17
2023-01-17T08:45:12.178Z,3.30
2023-01-17T08:47:38.928Z,3.35
2023-01-17T08:50:06.955Z,1.48
2023-01-17T08:52:33.876Z,2.70
2023-01-17T08:55:00.536Z,1.35
2023-01-17T08:57:27.502Z,4.03
2023-01-17T08:59:54.100Z,3.08
2023-01-17T09:02:20.749Z,1.65
2023-01-17T09:04:48.936Z,1.05
2023-01-17T09:07:17.495Z,0.85
2023-01-17T09:09:44.618Z,0.82
2023-01-17T09:12:11.244Z,3.42
2023-01-17T09:14:38.369Z,3.78
2023-01-17T09:17:07.998Z,1.35
2023-01-17T09:19:35.507Z,3.20
2023-01-17T09:22:04.233Z,0.70
2023-01-17T09:24:32.713Z,1.90
2023-01-17T09:26:59.966Z,2.97
2023-01-17T09:29:26.662Z,3.30
2023-01-17T09:31:53.277Z,1.75
2023-01-17T09:34:19.978Z,1.58
2023-01-17T09:36:46.693Z,1.90
2023-01-17T09:39:15.292Z,1.13
2023-01-17T09:42:19.794Z,0.82
2023-01-17T09:44:51.467Z,0.70
2023-01-17T09:47:52.537Z,4.20
2023-01-17T09:50:37.347Z,0.80
2023-01-17T09:53:11.287Z,2.78
2023-01-17T09:55:49.060Z,0.80
2023-01-17T09:58:21.910Z,1.80
2023-01-17T10:01:27.679Z,1.92
2023-01-17T10:04:20.543Z,0.65
2023-01-17T10:07:38.406Z,0.85
2023-01-17T10:10:47.347Z,0.93
2023-01-17T10:13:42.247Z,1.42
2023-01-17T10:16:37.870Z,0.70
2023-01-17T10:19:28.168Z,1.30
2023-01-17T10:22:12.587Z,0.70
2023-01-17T10:25:20.078Z,2.60
2023-01-17T10:28:03.194Z,2.22
2023-01-17T10:30:49.109Z,3.05
2023-01-17T10:33:28.691Z,3.03
2023-01-17T10:36:15.381Z,1.38
2023-01-17T10:38:47.442Z,2.13
2023-01-17T10:41:29.961Z,3.50
2023-01-17T10:44:23.368Z,6.20
2023-01-17T10:47:04.214Z,0.80
2023-01-17T10:49:31.078Z,2.45
2023-01-17T10:52:11.561Z,2.30
2023-01-17T10:55:10.080Z,1.95
2023-01-17T10:57:43.237Z,2.72
2023-01-17T11:00:44.346Z,2.65
2023-01-17T11:03:16.385Z,1.00
2023-01-17T11:05:43.537Z,1.98
2023-01-17T11:08:13.615Z,1.45
2023-01-17T11:10:44.580Z,2.05
2023-01-17T11:13:38.729Z,1.85
2023-01-17T11:16:09.952Z,3.13
2023-01-17T11:18:39.600Z,1.95
2023-01-17T11:21:17.405Z,5.93
2023-01-17T11:23:49.693Z,2.80
2023-01-17T11:26:34.389Z,1.92
2023-01-17T11:29:38.854Z,3.03
2023-01-17T11:32:32.016Z,2.50
2023-01-17T11:35:32.463Z,4.07
2023-01-17T11:38:07.783Z,2.83
2023-01-17T11:40:47.622Z,4.80
2023-01-17T11:43:21.117Z,2.03
2023-01-17T11:46:15.454Z,7.18
2023-01-17T11:48:46.545Z,1.13
2023-01-17T11:51:31.271Z,1.20
2023-01-17T11:54:16.592Z,4.72
2023-01-17T11:56:46.270Z,1.13
2023-01-17T11:59:22.105Z,4.05
2023-01-17T12:02:46.846Z,14.23
2023-01-17T12:05:42.339Z,3.03
2023-01-17T12:08:30.401Z,4.35
2023-01-17T12:11:10.202Z,3.33
2023-01-17T12:14:22.337Z,3.30
2023-01-17T12:17:19.515Z,1.80
2023-01-17T12:20:01.604Z,3.63
2023-01-17T12:23:08.906Z,2.42
2023-01-17T12:26:25.004Z,3.42
2023-01-17T12:29:21.627Z,5.22
2023-01-17T12:32:06.817Z,0.90
2023-01-17T12:34:43.601Z,8.38
2023-01-17T12:37:24.701Z,1.85
2023-01-17T12:40:03.409Z,2.25
2023-01-17T12:42:37.047Z,6.43
2023-01-17T12:45:24.496Z,3.58
2023-01-17T12:47:59.061Z,3.55
2023-01-17T12:50:41.085Z,7.18
2023-01-17T12:53:18.189Z,9.40
2023-01-17T12:56:28.577Z,1.77
2023-01-17T12:59:04.147Z,3.13
2023-01-17T13:01:43.136Z,5.20
2023-01-17T13:04:46.924Z,3.35
2023-01-17T13:07:42.721Z,1.98
2023-01-17T13:10:25.103Z,3.50
2023-01-17T13:12:54.671Z,1.63
2023-01-17T13:15:28.448Z,4.53
2023-01-17T13:18:09.470Z,1.23
2023-01-17T13:20:56.252Z,5.55
2023-01-17T13:23:30.736Z,2.88
2023-01-17T13:25:59.882Z,10.80
2023-01-17T13:28:42.710Z,2.97
2023-01-17T13:31:20.411Z,2.92
2023-01-17T13:34:08.906Z,2.88
2023-01-17T13:37:20.651Z,4.03
2023-01-17T13:40:16.783Z,5.68
2023-01-17T13:43:00.097Z,12.40
2023-01-17T13:45:34.865Z,5.43
2023-01-17T13:48:25.694Z,7.15
2023-01-17T13:51:06.065Z,9.18
2023-01-17T13:53:35.685Z,5.60
2023-01-17T13:56:27.756Z,7.20
2023-01-17T13:59:02.098Z,417.13
2023-01-17T14:01:38.359Z,18.42
2023-01-17T14:04:10.588Z,9.38
2023-01-17T14:06:46.431Z,13.23
2023-01-17T14:09:19.207Z,19.40
2023-01-17T14:12:02.429Z,29.38
2023-01-17T14:14:46.487Z,29.80
2023-01-17T14:17:23.133Z,9.90
2023-01-17T14:19:52.693Z,32.95
2023-01-17T14:22:30.089Z,7.50
2023-01-17T14:25:19.014Z,14.65
2023-01-17T14:27:50.322Z,26.52
2023-01-17T14:30:36.639Z,11.57
2023-01-17T14:33:12.716Z,8.45
2023-01-17T14:35:49.822Z,16.45
2023-01-17T14:38:22.005Z,9.45
2023-01-17T14:41:15.786Z,9.18
2023-01-17T14:43:43.703Z,13.30
2023-01-17T14:46:21.725Z,14.98
2023-01-17T14:48:48.550Z,48.35
2023-01-17T14:51:21.322Z,16.30
2023-01-17T14:53:59.308Z,34.17
2023-01-17T14:56:28.226Z,18.73
2023-01-17T14:59:27.144Z,20.33
2023-01-17T15:02:08.268Z,17.52
2023-01-17T15:04:39.466Z,47.90
2023-01-17T15:07:07.436Z,165.55
2023-01-17T15:09:37.491Z,192.93
2023-01-17T15:12:08.052Z,25.20
2023-01-17T15:14:38.449Z,16.80
2023-01-17T15:17:18.542Z,23.60
2023-01-17T15:19:53.914Z,58.05
2023-01-17T15:22:20.901Z,45.50
2023-01-17T15:24:49.185Z,19.88
2023-01-17T15:27:16.970Z,85.95
2023-01-17T15:29:45.434Z,43.20
2023-01-17T15:32:19.938Z,17.30
2023-01-17T15:34:49.058Z,12.13
2023-01-17T15:37:34.709Z,15.63
2023-01-17T15:40:22.789Z,22.85
2023-01-17T15:42:53.274Z,19.80
2023-01-17T15:45:24.394Z,29.92
2023-01-17T15:47:51.082Z,34.42
2023-01-17T15:50:30.582Z,8.95
2023-01-17T15:53:02.809Z,11.90
2023-01-17T15:55:48.120Z,117.55
2023-01-17T15:58:27.189Z,19.27
2023-01-17T16:00:54.241Z,16.13
2023-01-17T16:03:31.812Z,19.92
2023-01-17T16:06:01.184Z,17.95
2023-01-17T16:08:39.679Z,26.52
2023-01-17T16:11:08.166Z,22.75
2023-01-17T16:13:42.224Z,11.25
2023-01-17T16:16:24.584Z,17.48
2023-01-17T16:18:59.121Z,16.13
2023-01-17T16:21:29.445Z,26.88
2023-01-17T16:23:56.523Z,26.90
2023-01-17T16:26:25.686Z,21.05
2023-01-17T16:28:52.384Z,18.63
2023-01-17T16:31:19.519Z,49.78
2023-01-17T16:33:49.109Z,17.85
2023-01-17T16:36:16.679Z,36.35
2023-01-17T16:38:45.483Z,37.08
2023-01-17T16:41:12.400Z,27.20
2023-01-17T16:43:39.050Z,30.95
2023-01-17T16:46:06.129Z,11.02
2023-01-17T16:48:32.800Z,11.40
2023-01-17T16:50:59.582Z,122.07
2023-01-17T16:53:28.204Z,28.02
2023-01-17T16:56:05.276Z,26.45
2023-01-17T16:58:31.907Z,16.10
2023-01-17T17:01:00.277Z,14.50
2023-01-17T17:03:27.031Z,7.10
2023-01-17T17:05:58.538Z,8.75
2023-01-17T17:08:25.341Z,4.07
2023-01-17T17:10:52.111Z,7.28
2023-01-17T17:13:18.788Z,7.60
2023-01-17T17:15:45.748Z,14.15
2023-01-17T17:18:17.249Z,4.57
2023-01-17T17:20:44.760Z,12.90
2023-01-17T17:23:11.596Z,5.97
2023-01-17T17:25:38.710Z,6.95
2023-01-17T17:28:06.120Z,6.70
2023-01-17T17:30:33.383Z,6.47
2023-01-17T17:33:00.168Z,19.30
2023-01-17T17:35:26.946Z,67.28
2023-01-17T17:37:54.037Z,34.80
2023-01-17T17:40:20.894Z,32.33
2023-01-17T17:42:47.494Z,9.52
2023-01-17T17:45:14.214Z,9.85
2023-01-17T17:47:40.791Z,6.50
2023-01-17T17:50:08.166Z,4.70
2023-01-17T17:52:34.986Z,6.32
2023-01-17T17:55:01.612Z,7.05
2023-01-17T17:57:28.162Z,4.22
2023-01-17T17:59:56.770Z,4.82
2023-01-17T18:02:23.455Z,4.43
2023-01-17T18:04:50.292Z,4.85
2023-01-17T18:07:17.162Z,4.28
2023-01-17T18:09:43.795Z,4.40
2023-01-17T18:12:10.373Z,4.50
2023-01-17T18:14:37.023Z,3.03
2023-01-17T18:17:03.652Z,5.80
2023-01-17T18:19:30.286Z,3.70
2023-01-17T18:21:58.119Z,14.27
2023-01-17T18:24:27.145Z,5.78
2023-01-17T18:26:57.684Z,5.65
2023-01-17T18:29:26.034Z,4.57
2023-01-17T18:31:53.831Z,6.55
2023-01-17T18:34:29.024Z,6.13
2023-01-17T18:36:55.859Z,4.03
2023-01-17T18:39:29.866Z,7.38
2023-01-17T18:41:56.705Z,5.72
2023-01-17T18:44:23.360Z,7.22
2023-01-17T18:46:52.469Z,8.10
2023-01-17T18:49:19.524Z,5.03
2023-01-17T18:51:50.404Z,4.88
2023-01-17T18:54:18.128Z,3.45
2023-01-17T18:56:44.813Z,5.80
2023-01-17T18:59:12.988Z,21.65
2023-01-17T19:01:43.551Z,10.75
2023-01-17T19:04:12.133Z,9.40
2023-01-17T19:06:41.290Z,5.07
2023-01-17T19:09:09.331Z,4.82
2023-01-17T19:11:36.753Z,8.82
2023-01-17T19:14:04.055Z,3.95
2023-01-17T19:16:34.699Z,7.45
2023-01-17T19:19:03.955Z,15.38
2023-01-17T19:21:31.077Z,6.55
2023-01-17T19:23:58.865Z,5.03
2023-01-17T19:26:27.397Z,3.88
2023-01-17T19:29:05.095Z,8.02
2023-01-17T19:31:35.725Z,4.55
2023-01-17T19:34:02.668Z,4.43
2023-01-17T19:36:34.434Z,5.47
2023-01-17T19:39:05.399Z,4.25
2023-01-17T19:41:35.066Z,5.03
2023-01-17T19:44:06.701Z,4.60
2023-01-17T19:46:34.309Z,4.90
2023-01-17T19:49:01.517Z,5.03
2023-01-17T19:51:28.844Z,5.30
2023-01-17T19:53:56.769Z,5.30
2023-01-17T19:56:26.192Z,7.63
2023-01-17T19:58:53.237Z,7.78
2023-01-17T20:01:27.379Z,4.78
2023-01-17T20:03:57.509Z,62.22
2023-01-17T20:06:27.523Z,18.25
2023-01-17T20:08:54.428Z,11.73
2023-01-17T20:11:22.819Z,46.85
2023-01-17T20:13:54.403Z,10.77
2023-01-17T20:16:22.633Z,3.97
2023-01-17T20:18:51.838Z,13.93
2023-01-17T20:21:24.552Z,6.75
2023-01-17T20:23:52.666Z,9.70
2023-01-17T20:26:34.355Z,11.20
2023-01-17T20:29:10.794Z,7.85
2023-01-17T20:31:38.396Z,7.97
2023-01-17T20:34:06.529Z,6.85
2023-01-17T20:36:33.227Z,5.40
2023-01-17T20:39:00.885Z,6.90
2023-01-17T20:41:43.535Z,6.88
2023-01-17T20:44:15.612Z,7.47
2023-01-17T20:46:43.416Z,6.97
2023-01-17T20:49:15.816Z,6.03
2023-01-17T20:51:44.310Z,6.03
2023-01-17T20:54:14.286Z,5.43
2023-01-17T20:56:41.665Z,8.65
2023-01-17T20:59:12.174Z,9.65
2023-01-17T21:01:38.987Z,8.23
2023-01-17T21:04:10.048Z,4.90
2023-01-17T21:06:41.585Z,7.35
2023-01-17T21:09:11.936Z,8.05
2023-01-17T21:11:38.530Z,13.05
2023-01-17T21:14:05.936Z,6.80
2023-01-17T21:16:34.207Z,5.32
2023-01-17T21:19:01.423Z,7.65
2023-01-17T21:21:29.243Z,7.40
2023-01-17T21:23:59.935Z,5.97
2023-01-17T21:26:28.585Z,6.00
2023-01-17T21:28:55.819Z,7.55
2023-01-17T21:31:25.849Z,5.78
2023-01-17T21:33:57.989Z,5.75
2023-01-17T21:36:27.698Z,5.72
2023-01-17T21:38:57.193Z,4.20
2023-01-17T21:41:30.162Z,4.38
2023-01-17T21:44:00.191Z,6.75
2023-01-17T21:46:27.761Z,6.68
2023-01-17T21:48:56.675Z,4.32
2023-01-17T21:51:24.355Z,5.00
2023-01-17T21:53:51.017Z,5.32
2023-01-17T21:56:36.512Z,5.65
2023-01-17T21:59:03.227Z,6.47
2023-01-17T22:01:32.775Z,4.13
2023-01-17T22:04:01.593Z,20.48
2023-01-17T22:06:38.568Z,7.15
2023-01-17T22:09:06.301Z,10.30
2023-01-17T22:11:35.775Z,4.20
2023-01-17T22:14:05.212Z,4.22
2023-01-17T22:16:32.201Z,4.25
2023-01-17T22:18:59.072Z,5.60
2023-01-17T22:21:28.301Z,5.35
2023-01-17T22:23:59.426Z,4.32
2023-01-17T22:26:28.865Z,6.93
2023-01-17T22:28:55.909Z,5.20
2023-01-17T22:31:25.567Z,4.55
2023-01-17T22:33:53.889Z,14.32
2023-01-17T22:36:21.528Z,14.80
2023-01-17T22:38:48.494Z,11.20
2023-01-17T22:41:19.969Z,18.50
2023-01-17T22:43:52.340Z,23.58
2023-01-17T22:46:28.292Z,11.93
2023-01-17T22:48:57.288Z,30.00
2023-01-17T22:51:26.065Z,18.65
2023-01-17T22:53:55.626Z,17.50
2023-01-17T22:56:28.204Z,18.58
2023-01-17T23:01:26.629Z,11.27
2023-01-17T23:03:57.082Z,21.20
2023-01-17T23:06:32.098Z,33.95
2023-01-17T23:09:02.378Z,127.40
2023-01-17T23:11:52.565Z,74.57
2023-01-17T23:14:26.524Z,22.45
2023-01-17T23:17:22.036Z,20.33
2023-01-17T23:19:51.157Z,12.40
2023-01-17T23:22:29.097Z,12.48
2023-01-17T23:25:14.657Z,15.55
2023-01-17T23:28:05.129Z,11.52
2023-01-17T23:30:40.258Z,6.40
2023-01-17T23:33:12.117Z,9.68
2023-01-17T23:35:42.191Z,6.82
2023-01-17T23:38:33.825Z,14.20
2023-01-17T23:41:26.560Z,9.10
2023-01-17T23:43:57.552Z,9.80
2023-01-17T23:46:25.551Z,9.27
2023-01-17T23:48:52.682Z,6.63
2023-01-17T23:51:19.305Z,10.13
2023-01-17T23:53:45.990Z,8.68
2023-01-17T23:56:23.130Z,7.50
2023-01-17T23:58:50.256Z,8.43
